createdAt,value
2023-05-17T00:00:00.128Z,72.07
2023-05-17T00:02:29.585Z,71.44
2023-05-17T00:05:01.520Z,71.46
2023-05-17T00:07:31.099Z,71.81
2023-05-17T00:10:00.791Z,72.58
2023-05-17T00:12:30.545Z,72.34
2023-05-17T00:15:00.144Z,72.45
2023-05-17T00:17:29.961Z,72.90
2023-05-17T00:20:02.982Z,72.35
2023-05-17T00:22:32.340Z,72.40
2023-05-17T00:25:02.011Z,72.49
2023-05-17T00:27:31.695Z,72.35
2023-05-17T00:30:01.224Z,72.54
2023-05-17T00:32:33.168Z,72.63
2023-05-17T00:35:04.007Z,72.23
2023-05-17T00:37:32.941Z,73.10
2023-05-17T00:40:02.630Z,73.14
2023-05-17T00:42:32.417Z,73.11
2023-05-17T00:45:01.556Z,72.83
2023-05-17T00:47:31.216Z,72.38
2023-05-17T00:50:03.022Z,72.78
2023-05-17T00:52:45.688Z,73.07
2023-05-17T00:55:15.122Z,73.20
2023-05-17T00:57:46.097Z,73.60
2023-05-17T01:00:18.081Z,73.43
2023-05-17T01:02:49.640Z,73.90
2023-05-17T01:05:19.125Z,74.68
2023-05-17T01:07:53.100Z,74.56
2023-05-17T01:10:23.814Z,74.60
2023-05-17T01:13:09.705Z,74.25
2023-05-17T01:15:45.711Z,74.93
2023-05-17T01:18:23.303Z,74.87
2023-05-17T01:21:01.124Z,75.92
2023-05-17T01:23:50.795Z,75.05
2023-05-17T01:26:36.485Z,75.37
2023-05-17T01:29:10.629Z,75.62
2023-05-17T01:31:42.521Z,75.87
2023-05-17T01:34:22.201Z,76.16
2023-05-17T01:36:53.550Z,76.09
2023-05-17T01:39:23.966Z,76.05
2023-05-17T01:42:10.861Z,75.77
2023-05-17T01:44:52.816Z,75.90
2023-05-17T01:47:33.105Z,76.37
2023-05-17T01:50:03.815Z,75.62
2023-05-17T01:52:40.532Z,76.33
2023-05-17T01:55:22.874Z,75.70
2023-05-17T01:57:59.683Z,75.66
2023-05-17T02:00:32.420Z,76.69
2023-05-17T02:03:01.933Z,76.32
2023-05-17T02:05:32.431Z,76.98
2023-05-17T02:08:01.813Z,76.49
2023-05-17T02:10:36.123Z,77.20
2023-05-17T02:13:07.670Z,76.59
2023-05-17T02:15:37.478Z,77.71
2023-05-17T02:18:07.107Z,77.48
2023-05-17T02:20:38.278Z,77.70
2023-05-17T02:23:08.470Z,77.89
2023-05-17T02:25:38.596Z,77.76
2023-05-17T02:28:11.712Z,78.38
2023-05-17T02:30:43.358Z,77.49
2023-05-17T02:33:21.852Z,78.38
2023-05-17T02:35:53.801Z,77.28
2023-05-17T02:38:28.184Z,78.00
2023-05-17T02:40:58.907Z,77.31
2023-05-17T02:43:33.671Z,77.10
2023-05-17T02:46:03.153Z,76.81
2023-05-17T02:48:35.320Z,76.46
2023-05-17T02:51:05.350Z,76.28
2023-05-17T02:53:35.026Z,76.18
2023-05-17T02:56:04.565Z,76.98
2023-05-17T02:58:36.954Z,76.20
2023-05-17T03:01:13.128Z,76.18
2023-05-17T03:03:46.192Z,77.37
2023-05-17T03:06:17.508Z,76.18
2023-05-17T03:08:47.716Z,75.94
2023-05-17T03:11:20.153Z,75.67
2023-05-17T03:13:52.790Z,74.62
2023-05-17T03:16:30.132Z,75.32
2023-05-17T03:19:00.688Z,74.86
2023-05-17T03:21:31.415Z,74.35
2023-05-17T03:24:00.787Z,74.11
2023-05-17T03:26:32.611Z,74.27
2023-05-17T03:29:03.840Z,73.21
2023-05-17T03:31:33.670Z,72.13
2023-05-17T03:34:04.234Z,72.71
2023-05-17T03:36:36.115Z,71.93
2023-05-17T03:39:05.645Z,71.52
2023-05-17T03:41:36.092Z,71.75
2023-05-17T03:44:08.100Z,70.64
2023-05-17T03:46:43.082Z,70.78
2023-05-17T03:49:13.494Z,69.85
2023-05-17T03:51:44.271Z,70.36
2023-05-17T03:54:13.303Z,69.58
2023-05-17T03:56:47.472Z,69.46
2023-05-17T03:59:18.549Z,69.16
2023-05-17T04:01:48.063Z,69.37
2023-05-17T04:04:16.855Z,69.28
2023-05-17T04:06:45.992Z,69.15
2023-05-17T04:09:15.881Z,68.97
2023-05-17T04:11:45.579Z,69.29
2023-05-17T04:14:18.378Z,69.20
2023-05-17T04:16:52.147Z,69.80
2023-05-17T04:19:22.474Z,69.43
2023-05-17T04:22:07.531Z,70.02
2023-05-17T04:24:38.098Z,69.47
2023-05-17T04:27:15.006Z,69.48
2023-05-17T04:29:49.478Z,69.72
2023-05-17T04:32:25.667Z,69.14
2023-05-17T04:34:54.717Z,68.97
2023-05-17T04:37:25.198Z,68.96
2023-05-17T04:39:55.621Z,67.82
2023-05-17T04:42:29.496Z,68.13
2023-05-17T04:45:14.086Z,67.34
2023-05-17T04:47:45.941Z,67.54
2023-05-17T04:50:24.080Z,66.50
2023-05-17T04:52:56.053Z,66.98
2023-05-17T04:55:27.540Z,66.33
2023-05-17T04:58:01.961Z,66.24
2023-05-17T05:00:32.979Z,66.22
2023-05-17T05:03:05.354Z,65.70
2023-05-17T05:05:34.494Z,65.70
2023-05-17T05:08:05.468Z,64.62
2023-05-17T05:10:35.546Z,64.36
2023-05-17T05:13:07.985Z,64.47
2023-05-17T05:15:39.535Z,63.80
2023-05-17T05:18:12.421Z,64.15
2023-05-17T05:20:44.028Z,63.71
2023-05-17T05:23:13.161Z,63.70
2023-05-17T05:25:44.869Z,63.93
2023-05-17T05:28:19.757Z,62.74
2023-05-17T05:30:51.103Z,62.50
2023-05-17T05:33:20.458Z,62.01
2023-05-17T05:35:59.635Z,61.21
2023-05-17T05:38:31.605Z,61.33
2023-05-17T05:41:02.093Z,61.28
2023-05-17T05:43:32.505Z,60.81
2023-05-17T05:46:03.596Z,60.12
2023-05-17T05:48:39.673Z,59.72
2023-05-17T05:51:08.929Z,59.40
2023-05-17T05:53:49.172Z,59.39
2023-05-17T05:56:22.011Z,58.86
2023-05-17T05:58:51.828Z,58.68
2023-05-17T06:01:25.539Z,57.84
2023-05-17T06:03:55.146Z,57.45
2023-05-17T06:06:25.181Z,56.46
2023-05-17T06:08:57.007Z,55.66
2023-05-17T06:11:33.833Z,54.87
2023-05-17T06:14:03.622Z,54.40
2023-05-17T06:16:36.255Z,53.69
2023-05-17T06:19:14.707Z,53.55
2023-05-17T06:21:44.597Z,53.24
2023-05-17T06:24:13.631Z,53.23
2023-05-17T06:26:44.643Z,52.71
2023-05-17T06:29:14.156Z,52.18
2023-05-17T06:31:46.545Z,52.33
2023-05-17T06:34:24.235Z,52.49
2023-05-17T06:36:54.047Z,52.87
2023-05-17T06:39:25.567Z,52.61
2023-05-17T06:41:57.180Z,52.85
2023-05-17T06:44:28.218Z,52.84
2023-05-17T06:47:02.285Z,53.29
2023-05-17T06:49:31.867Z,53.51
2023-05-17T06:52:04.175Z,53.82
2023-05-17T06:54:34.141Z,53.90
2023-05-17T06:57:06.154Z,54.08
2023-05-17T06:59:35.579Z,53.15
2023-05-17T07:02:12.155Z,53.17
2023-05-17T07:04:42.207Z,52.81
2023-05-17T07:07:12.900Z,52.55
2023-05-17T07:09:42.976Z,52.24
2023-05-17T07:12:15.468Z,51.53
2023-05-17T07:14:45.530Z,51.58
2023-05-17T07:17:20.157Z,51.86
2023-05-17T07:19:52.282Z,51.09
2023-05-17T07:22:24.062Z,50.33
2023-05-17T07:24:57.332Z,50.29
2023-05-17T07:27:31.162Z,49.40
2023-05-17T07:30:02.832Z,49.07
2023-05-17T07:32:33.682Z,48.88
2023-05-17T07:35:04.146Z,49.57
2023-05-17T07:37:33.537Z,49.20
2023-05-17T07:40:05.179Z,48.92
2023-05-17T07:42:36.201Z,47.52
2023-05-17T07:45:06.727Z,47.33
2023-05-17T07:47:38.308Z,46.16
2023-05-17T07:50:10.266Z,45.75
2023-05-17T07:52:39.852Z,46.04
2023-05-17T07:55:13.742Z,46.02
2023-05-17T07:57:47.619Z,46.26
2023-05-17T08:00:20.363Z,45.84
2023-05-17T08:02:52.375Z,46.63
2023-05-17T08:05:22.411Z,46.88
2023-05-17T08:08:10.123Z,46.78
2023-05-17T08:10:42.310Z,47.14
2023-05-17T08:13:12.580Z,46.64
2023-05-17T08:15:41.934Z,46.87
2023-05-17T08:18:13.817Z,47.09
2023-05-17T08:20:44.663Z,47.18
2023-05-17T08:23:14.140Z,47.16
2023-05-17T08:25:44.195Z,46.25
2023-05-17T08:28:13.662Z,46.55
2023-05-17T08:30:43.510Z,46.42
2023-05-17T08:33:15.102Z,46.18
2023-05-17T08:35:51.245Z,46.35
2023-05-17T08:38:22.294Z,45.60
2023-05-17T08:41:02.679Z,45.84
2023-05-17T08:43:34.181Z,45.92
2023-05-17T08:46:04.907Z,45.22
2023-05-17T08:48:42.350Z,44.98
2023-05-17T08:51:12.524Z,44.92
2023-05-17T08:53:47.557Z,44.60
2023-05-17T08:56:20.723Z,45.02
2023-05-17T08:58:57.852Z,44.23
2023-05-17T09:01:34.761Z,43.62
2023-05-17T09:04:13.995Z,43.25
2023-05-17T09:06:46.787Z,42.76
2023-05-17T09:09:19.268Z,42.58
2023-05-17T09:11:49.680Z,42.44
2023-05-17T09:14:19.959Z,42.13
2023-05-17T09:16:51.050Z,41.44
2023-05-17T09:19:25.407Z,41.48
2023-05-17T09:21:58.964Z,42.08
2023-05-17T09:24:32.491Z,41.71
2023-05-17T09:27:12.946Z,42.39
2023-05-17T09:29:42.964Z,41.67
2023-05-17T09:32:17.276Z,42.28
2023-05-17T09:34:52.382Z,42.65
2023-05-17T09:37:31.738Z,43.15
2023-05-17T09:40:07.780Z,43.83
2023-05-17T09:42:41.754Z,43.63
2023-05-17T09:45:14.795Z,44.67
2023-05-17T09:47:44.517Z,44.51
2023-05-17T09:50:25.352Z,45.26
2023-05-17T09:52:57.205Z,45.83
2023-05-17T09:55:29.867Z,46.01
2023-05-17T09:58:06.718Z,46.92
2023-05-17T10:00:47.209Z,46.58
2023-05-17T10:03:19.520Z,47.19
2023-05-17T10:05:54.922Z,47.63
2023-05-17T10:08:27.581Z,48.08
2023-05-17T10:11:00.899Z,47.01
2023-05-17T10:13:36.743Z,46.19
2023-05-17T10:16:09.425Z,45.49
2023-05-17T10:18:41.829Z,44.21
2023-05-17T10:21:14.189Z,43.11
2023-05-17T10:23:47.384Z,42.87
2023-05-17T10:26:29.392Z,42.39
2023-05-17T10:29:18.591Z,41.78
2023-05-17T10:31:50.238Z,40.80
2023-05-17T10:34:23.772Z,40.43
2023-05-17T10:37:11.825Z,39.54
2023-05-17T10:39:47.833Z,38.65
2023-05-17T10:42:22.505Z,38.66
2023-05-17T10:44:56.530Z,39.44
2023-05-17T10:47:35.862Z,39.39
2023-05-17T10:50:15.291Z,39.70
2023-05-17T10:52:57.945Z,39.93
2023-05-17T10:55:39.620Z,40.14
2023-05-17T10:58:30.382Z,40.87
2023-05-17T11:01:08.395Z,40.89
2023-05-17T11:03:40.090Z,40.95
2023-05-17T11:06:24.502Z,40.75
2023-05-17T11:09:18.394Z,40.67
2023-05-17T11:12:09.389Z,40.63
2023-05-17T11:14:54.370Z,39.89
2023-05-17T11:17:28.534Z,38.53
2023-05-17T11:20:06.529Z,38.05
2023-05-17T11:22:42.435Z,37.25
2023-05-17T11:25:18.693Z,36.99
2023-05-17T11:27:54.065Z,36.85
2023-05-17T11:30:28.938Z,36.75
2023-05-17T11:33:05.681Z,37.10
2023-05-17T11:35:40.649Z,37.40
2023-05-17T11:38:22.372Z,37.26
2023-05-17T11:40:56.900Z,38.08
2023-05-17T11:43:31.331Z,37.45
2023-05-17T11:46:05.946Z,36.94
2023-05-17T11:48:37.099Z,35.73
2023-05-17T11:51:09.918Z,35.40
2023-05-17T11:53:42.038Z,35.19
2023-05-17T11:56:13.497Z,35.57
2023-05-17T11:58:46.483Z,35.79
2023-05-17T12:01:16.600Z,35.85
2023-05-17T12:03:50.563Z,36.43
2023-05-17T12:06:21.126Z,35.80
2023-05-17T12:08:56.690Z,35.59
2023-05-17T12:11:29.853Z,35.30
2023-05-17T12:14:00.217Z,35.28
2023-05-17T12:16:33.227Z,35.03
2023-05-17T12:19:09.793Z,34.75
2023-05-17T12:21:41.172Z,34.79
2023-05-17T12:24:10.830Z,35.67
2023-05-17T12:26:45.770Z,34.25
2023-05-17T12:29:18.471Z,33.01
2023-05-17T12:31:53.668Z,31.66
2023-05-17T12:34:23.995Z,31.60
2023-05-17T12:36:55.315Z,31.61
2023-05-17T12:39:25.930Z,32.38
2023-05-17T12:41:57.429Z,32.48
2023-05-17T12:44:32.136Z,32.53
2023-05-17T12:47:05.320Z,31.54
2023-05-17T12:49:41.375Z,31.57
2023-05-17T12:52:16.448Z,31.54
2023-05-17T12:54:46.955Z,31.70
2023-05-17T12:57:22.487Z,32.27
2023-05-17T12:59:56.143Z,31.71
2023-05-17T13:02:25.679Z,31.19
2023-05-17T13:04:56.539Z,30.19
2023-05-17T13:07:27.799Z,28.53
2023-05-17T13:09:58.711Z,27.78
2023-05-17T13:12:30.188Z,28.50
2023-05-17T13:15:00.374Z,29.56
2023-05-17T13:17:40.801Z,30.29
2023-05-17T13:20:11.622Z,30.36
2023-05-17T13:22:45.987Z,28.99
2023-05-17T13:25:17.992Z,28.08
2023-05-17T13:27:50.060Z,27.86
2023-05-17T13:30:19.376Z,27.01
2023-05-17T13:32:49.347Z,26.94
2023-05-17T13:35:18.980Z,27.79
2023-05-17T13:37:49.108Z,28.53
2023-05-17T13:40:20.284Z,28.77
2023-05-17T13:42:51.282Z,29.21
2023-05-17T13:45:20.361Z,28.43
2023-05-17T13:47:49.655Z,29.28
2023-05-17T13:50:22.376Z,30.11
2023-05-17T13:52:51.903Z,30.48
2023-05-17T13:55:23.162Z,30.91
2023-05-17T13:57:54.648Z,31.35
2023-05-17T14:00:27.197Z,30.92
2023-05-17T14:02:59.131Z,29.09
2023-05-17T14:05:29.274Z,29.58
2023-05-17T14:07:59.705Z,30.79
2023-05-17T14:10:32.455Z,30.45
2023-05-17T14:13:03.480Z,30.71
2023-05-17T14:15:33.106Z,31.37
2023-05-17T14:18:02.232Z,31.61
2023-05-17T14:20:36.331Z,30.44
2023-05-17T14:23:06.147Z,30.13
2023-05-17T14:25:36.670Z,29.34
2023-05-17T14:28:07.406Z,27.41
2023-05-17T14:30:37.386Z,26.59
2023-05-17T14:33:09.387Z,26.18
2023-05-17T14:35:40.836Z,25.15
2023-05-17T14:38:11.201Z,25.91
2023-05-17T14:40:40.248Z,25.68
2023-05-17T14:43:12.123Z,24.63
2023-05-17T14:45:43.649Z,24.47
2023-05-17T14:48:13.435Z,23.47
2023-05-17T14:50:43.133Z,23.20
2023-05-17T14:53:13.249Z,22.74
2023-05-17T14:55:42.691Z,23.31
2023-05-17T14:58:13.655Z,23.61
2023-05-17T15:00:48.572Z,25.25
2023-05-17T15:03:22.278Z,26.45
2023-05-17T15:05:57.294Z,27.98
2023-05-17T15:08:29.744Z,29.37
2023-05-17T15:11:00.327Z,30.62
2023-05-17T15:13:32.721Z,31.64
2023-05-17T15:16:05.594Z,32.12
2023-05-17T15:18:37.219Z,32.77
2023-05-17T15:21:08.228Z,33.27
2023-05-17T15:23:38.668Z,33.22
2023-05-17T15:26:10.704Z,32.52
2023-05-17T15:28:43.920Z,30.51
2023-05-17T15:31:17.692Z,31.62
2023-05-17T15:33:48.738Z,32.03
2023-05-17T15:36:17.898Z,32.97
2023-05-17T15:38:48.062Z,33.51
2023-05-17T15:41:19.830Z,33.96
2023-05-17T15:43:56.002Z,34.01
2023-05-17T15:46:33.662Z,33.46
2023-05-17T15:49:02.581Z,33.35
2023-05-17T15:51:32.672Z,33.59
2023-05-17T15:54:02.110Z,33.77
2023-05-17T15:56:32.575Z,33.56
2023-05-17T15:59:03.511Z,33.79
2023-05-17T16:01:38.253Z,33.24
2023-05-17T16:04:08.397Z,32.07
2023-05-17T16:06:38.689Z,32.38
2023-05-17T16:09:08.626Z,33.30
2023-05-17T16:11:38.682Z,33.62
2023-05-17T16:14:10.668Z,34.09
2023-05-17T16:16:40.066Z,34.64
2023-05-17T16:19:09.902Z,34.99
2023-05-17T16:21:39.269Z,36.02
2023-05-17T16:24:09.425Z,36.16
2023-05-17T16:26:40.454Z,36.30
2023-05-17T16:29:13.993Z,37.24
2023-05-17T16:31:44.160Z,37.43
2023-05-17T16:34:13.563Z,37.73
2023-05-17T16:36:47.503Z,37.77
2023-05-17T16:39:27.615Z,37.76
2023-05-17T16:41:58.007Z,38.27
2023-05-17T16:44:29.814Z,37.83
2023-05-17T16:46:59.523Z,37.84
2023-05-17T16:49:30.748Z,37.95
2023-05-17T16:52:00.116Z,37.95
2023-05-17T16:54:38.155Z,37.30
2023-05-17T16:57:09.625Z,36.43
2023-05-17T16:59:41.701Z,36.12
2023-05-17T17:02:12.576Z,36.13
2023-05-17T17:04:42.610Z,34.75
2023-05-17T17:07:20.380Z,32.51
2023-05-17T17:09:50.232Z,30.31
2023-05-17T17:12:24.041Z,30.28
2023-05-17T17:17:42.555Z,29.60
2023-05-17T17:20:14.672Z,28.95
2023-05-17T17:22:46.227Z,28.31
2023-05-17T17:25:17.290Z,29.03
2023-05-17T17:27:50.518Z,30.20
2023-05-17T17:30:31.638Z,31.59
2023-05-17T17:33:02.497Z,32.66
2023-05-17T17:35:32.003Z,33.73
2023-05-17T17:38:03.458Z,34.78
2023-05-17T17:40:34.065Z,35.33
2023-05-17T17:43:03.632Z,36.06
2023-05-17T17:45:34.910Z,36.64
2023-05-17T17:48:04.329Z,37.32
2023-05-17T17:50:44.245Z,37.76
2023-05-17T17:53:13.784Z,38.23
2023-05-17T17:55:42.874Z,38.39
2023-05-17T17:58:12.177Z,38.85
2023-05-17T18:00:44.705Z,39.04
2023-05-17T18:03:14.367Z,39.67
2023-05-17T18:05:45.674Z,39.15
2023-05-17T18:08:15.201Z,39.60
2023-05-17T18:10:45.712Z,39.54
2023-05-17T18:13:16.382Z,39.99
2023-05-17T18:15:47.730Z,40.41
2023-05-17T18:18:18.508Z,40.73
2023-05-17T18:20:47.416Z,40.84
2023-05-17T18:23:18.652Z,40.97
2023-05-17T18:25:53.217Z,40.87
2023-05-17T18:28:37.550Z,40.89
2023-05-17T18:31:14.442Z,40.81
2023-05-17T18:33:44.026Z,41.34
2023-05-17T18:36:13.680Z,41.88
2023-05-17T18:38:43.430Z,42.35
2023-05-17T18:41:12.481Z,42.47
2023-05-17T18:43:41.746Z,42.58
2023-05-17T18:46:13.767Z,42.19
2023-05-17T18:48:43.688Z,42.91
2023-05-17T18:51:15.873Z,43.01
2023-05-17T18:53:45.368Z,43.22
2023-05-17T18:56:16.613Z,43.46
2023-05-17T18:58:46.391Z,43.54
2023-05-17T19:01:22.372Z,44.22
2023-05-17T19:03:55.399Z,44.37
2023-05-17T19:06:28.019Z,43.91
2023-05-17T19:09:01.197Z,44.37
2023-05-17T19:11:32.548Z,44.35
2023-05-17T19:14:05.222Z,44.41
2023-05-17T19:16:36.672Z,44.09
2023-05-17T19:19:07.292Z,44.29
2023-05-17T19:21:36.466Z,44.31
2023-05-17T19:24:07.781Z,44.84
2023-05-17T19:26:37.920Z,44.63
2023-05-17T19:29:08.009Z,45.13
2023-05-17T19:31:41.557Z,45.25
2023-05-17T19:34:12.662Z,45.47
2023-05-17T19:36:43.787Z,45.34
2023-05-17T19:39:13.594Z,45.68
2023-05-17T19:41:42.239Z,45.51
2023-05-17T19:44:11.773Z,45.56
2023-05-17T19:46:43.286Z,45.68
2023-05-17T19:49:13.448Z,45.95
2023-05-17T19:51:43.694Z,46.38
2023-05-17T19:54:12.395Z,46.18
2023-05-17T19:56:42.804Z,46.25
2023-05-17T19:59:12.303Z,46.61
2023-05-17T20:01:42.637Z,46.80
2023-05-17T20:04:11.941Z,46.71
2023-05-17T20:06:42.186Z,46.89
2023-05-17T20:09:12.737Z,47.03
2023-05-17T20:11:41.616Z,47.22
2023-05-17T20:14:12.672Z,47.24
2023-05-17T20:16:44.484Z,47.33
2023-05-17T20:19:14.545Z,47.51
2023-05-17T20:21:43.464Z,47.96
2023-05-17T20:26:56.726Z,47.69
2023-05-17T20:29:33.842Z,47.91
2023-05-17T20:32:05.010Z,48.08
2023-05-17T20:34:35.066Z,48.49
2023-05-17T20:37:04.611Z,48.76
2023-05-17T20:39:35.502Z,48.82
2023-05-17T20:42:04.721Z,49.14
2023-05-17T20:44:34.497Z,49.26
2023-05-17T20:47:10.731Z,49.47
2023-05-17T20:49:40.382Z,49.83
2023-05-17T20:52:10.220Z,49.97
2023-05-17T20:54:40.822Z,50.19
2023-05-17T20:57:10.465Z,50.29
2023-05-17T20:59:40.080Z,50.27
2023-05-17T21:02:10.933Z,50.63
2023-05-17T21:04:39.988Z,50.95
2023-05-17T21:07:10.729Z,50.93
2023-05-17T21:09:41.359Z,51.10
2023-05-17T21:12:13.593Z,51.21
2023-05-17T21:14:42.817Z,51.44
2023-05-17T21:17:14.240Z,51.42
2023-05-17T21:19:42.904Z,51.96
2023-05-17T21:22:11.564Z,51.73
2023-05-17T21:24:41.058Z,51.64
2023-05-17T21:27:11.264Z,51.86
2023-05-17T21:29:40.303Z,51.79
2023-05-17T21:32:09.822Z,52.38
2023-05-17T21:34:51.069Z,52.32
2023-05-17T21:37:33.114Z,52.18
2023-05-17T21:40:03.302Z,52.28
2023-05-17T21:42:32.236Z,52.39
2023-05-17T21:45:01.092Z,52.64
2023-05-17T21:47:31.797Z,52.58
2023-05-17T21:50:03.035Z,52.69
2023-05-17T21:52:32.797Z,52.63
2023-05-17T21:55:02.105Z,52.77
2023-05-17T21:57:36.112Z,52.28
2023-05-17T22:00:09.373Z,52.72
2023-05-17T22:02:39.965Z,52.40
2023-05-17T22:05:20.232Z,51.97
2023-05-17T22:07:52.391Z,52.31
2023-05-17T22:10:24.647Z,52.12
2023-05-17T22:12:54.760Z,52.19
2023-05-17T22:15:29.090Z,52.95
2023-05-17T22:17:59.243Z,52.87
2023-05-17T22:20:31.193Z,53.01
2023-05-17T22:23:01.509Z,52.81
2023-05-17T22:25:30.941Z,53.12
2023-05-17T22:28:00.490Z,53.34
2023-05-17T22:30:34.571Z,54.17
2023-05-17T22:33:04.405Z,53.79
2023-05-17T22:35:36.532Z,53.78
2023-05-17T22:38:06.789Z,54.28
2023-05-17T22:40:37.040Z,54.10
2023-05-17T22:43:08.250Z,54.10
2023-05-17T22:45:45.297Z,54.38
2023-05-17T22:48:16.053Z,54.27
2023-05-17T22:50:48.520Z,54.97
2023-05-17T22:53:21.403Z,54.62
2023-05-17T22:55:51.755Z,54.72
2023-05-17T22:58:25.215Z,54.89
2023-05-17T23:00:54.807Z,54.41
2023-05-17T23:03:25.190Z,55.35
2023-05-17T23:06:03.275Z,55.59
2023-05-17T23:08:32.880Z,54.93
2023-05-17T23:11:05.097Z,55.45
2023-05-17T23:13:37.042Z,55.76
2023-05-17T23:16:08.650Z,55.44
2023-05-17T23:18:41.193Z,55.40
2023-05-17T23:21:12.349Z,55.50
2023-05-17T23:23:42.416Z,55.58
2023-05-17T23:26:11.841Z,56.08
2023-05-17T23:28:44.906Z,55.81
2023-05-17T23:31:16.989Z,55.93
2023-05-17T23:33:46.890Z,56.24
2023-05-17T23:36:22.138Z,55.50
2023-05-17T23:38:52.191Z,55.69
2023-05-17T23:41:25.868Z,55.75
2023-05-17T23:43:57.272Z,56.00
2023-05-17T23:46:27.155Z,56.13
2023-05-17T23:48:58.984Z,56.16
2023-05-17T23:51:33.588Z,55.81
2023-05-17T23:54:02.931Z,55.90
2023-05-17T23:56:32.551Z,56.09
2023-05-17T23:59:02.478Z,56.11
